createdAt,value
2018-08-08T00:00:00.773Z,0
2018-08-08T00:01:01.341Z,0
2018-08-08T00:02:01.909Z,0
2018-08-08T00:03:02.476Z,0
2018-08-08T00:04:03.043Z,0
2018-08-08T00:05:03.609Z,0
2018-08-08T00:06:04.175Z,0
2018-08-08T00:07:04.744Z,0
2018-08-08T00:08:05.339Z,0
2018-08-08T00:09:05.907Z,0
2018-08-08T00:10:06.475Z,0
2018-08-08T00:11:07.041Z,0
2018-08-08T00:12:07.607Z,0
2018-08-08T00:13:08.172Z,0
2018-08-08T00:14:08.738Z,0
2018-08-08T00:15:09.306Z,0
2018-08-08T00:16:09.894Z,0
2018-08-08T00:17:10.461Z,0
2018-08-08T00:18:11.029Z,0
2018-08-08T00:19:11.658Z,0
2018-08-08T00:20:12.164Z,0
2018-08-08T00:21:12.728Z,0
2018-08-08T00:22:13.297Z,0
2018-08-08T00:23:13.868Z,0
2018-08-08T00:24:14.431Z,0
2018-08-08T00:25:15.001Z,0
2018-08-08T00:26:15.595Z,0
2018-08-08T00:27:16.174Z,0
2018-08-08T00:28:16.740Z,0
2018-08-08T00:29:17.316Z,0
2018-08-08T00:30:17.874Z,0
2018-08-08T00:31:18.440Z,0
2018-08-08T00:32:19.007Z,0
2018-08-08T00:33:19.576Z,0
2018-08-08T00:34:20.162Z,0
2018-08-08T00:35:20.730Z,0
2018-08-08T00:36:21.294Z,0
2018-08-08T00:37:21.861Z,0
2018-08-08T00:38:22.428Z,0
2018-08-08T00:39:22.995Z,0
2018-08-08T00:40:23.563Z,0
2018-08-08T00:41:24.284Z,0
2018-08-08T00:42:24.838Z,0
2018-08-08T00:43:25.403Z,0
2018-08-08T00:44:25.973Z,0
2018-08-08T00:45:26.541Z,0
2018-08-08T00:46:27.130Z,0
2018-08-08T00:47:27.697Z,0
2018-08-08T00:48:28.263Z,0
2018-08-08T00:49:28.830Z,0
2018-08-08T00:50:29.395Z,0
2018-08-08T00:51:29.963Z,0
2018-08-08T00:52:30.553Z,0
2018-08-08T00:53:31.119Z,0
2018-08-08T00:54:31.685Z,0
2018-08-08T00:55:32.255Z,0
2018-08-08T00:56:32.814Z,0
2018-08-08T00:57:33.425Z,0
2018-08-08T00:58:33.946Z,0
2018-08-08T00:59:34.513Z,0
2018-08-08T01:00:35.077Z,0
2018-08-08T01:01:35.642Z,0
2018-08-08T01:02:36.206Z,0
2018-08-08T01:03:36.772Z,0
2018-08-08T01:04:37.338Z,0
2018-08-08T01:05:37.901Z,0
2018-08-08T01:06:38.467Z,0
2018-08-08T01:07:39.034Z,0
2018-08-08T01:08:39.657Z,0
2018-08-08T01:09:40.164Z,0
2018-08-08T01:10:40.735Z,0
2018-08-08T01:11:41.297Z,0
2018-08-08T01:12:41.863Z,0
2018-08-08T01:13:42.429Z,0
2018-08-08T01:14:43.011Z,0
2018-08-08T01:15:43.579Z,0
2018-08-08T01:16:44.165Z,0
2018-08-08T01:17:44.727Z,0
2018-08-08T01:18:45.312Z,0
2018-08-08T01:19:45.875Z,0
2018-08-08T01:20:46.463Z,0
2018-08-08T01:21:47.027Z,0
2018-08-08T01:22:47.612Z,0
2018-08-08T01:23:48.174Z,0
2018-08-08T01:24:48.745Z,0
2018-08-08T01:25:49.303Z,0
2018-08-08T01:26:49.867Z,0
2018-08-08T01:27:50.431Z,0
2018-08-08T01:28:50.995Z,0
2018-08-08T01:29:51.561Z,0
2018-08-08T01:30:52.125Z,0
2018-08-08T01:31:52.716Z,0
2018-08-08T01:32:53.279Z,0
2018-08-08T01:33:53.844Z,0
2018-08-08T01:34:54.408Z,0
2018-08-08T01:35:54.972Z,0
2018-08-08T01:36:55.539Z,0
2018-08-08T01:37:56.104Z,0
2018-08-08T01:38:56.668Z,0
2018-08-08T01:39:57.233Z,0
2018-08-08T01:40:57.795Z,0
2018-08-08T01:41:58.361Z,0
2018-08-08T01:42:58.926Z,0
2018-08-08T01:43:59.516Z,0
2018-08-08T01:45:00.099Z,0
2018-08-08T01:46:00.662Z,0
2018-08-08T01:47:01.226Z,0
2018-08-08T01:48:01.790Z,0
2018-08-08T01:49:02.354Z,0
2018-08-08T01:50:02.920Z,0
2018-08-08T01:51:03.483Z,0
2018-08-08T01:52:04.047Z,0
2018-08-08T01:53:04.610Z,0
2018-08-08T01:54:05.175Z,0
2018-08-08T01:55:05.737Z,0
2018-08-08T01:56:06.301Z,0
2018-08-08T01:57:06.868Z,0
2018-08-08T01:58:07.453Z,0
2018-08-08T01:59:08.020Z,0
2018-08-08T02:00:08.583Z,0
2018-08-08T02:01:09.147Z,0
2018-08-08T02:02:09.710Z,0
2018-08-08T02:03:10.276Z,0
2018-08-08T02:04:10.861Z,0
2018-08-08T02:05:11.426Z,0
2018-08-08T02:06:11.991Z,0
2018-08-08T02:07:12.554Z,0
2018-08-08T02:08:13.121Z,0
2018-08-08T02:09:13.704Z,0
2018-08-08T02:10:14.249Z,0
2018-08-08T02:11:14.814Z,0
2018-08-08T02:12:15.378Z,0
2018-08-08T02:13:15.943Z,0
2018-08-08T02:14:16.532Z,0
2018-08-08T02:15:17.089Z,0
2018-08-08T02:16:17.653Z,0
2018-08-08T02:17:18.218Z,0
2018-08-08T02:18:18.781Z,0
2018-08-08T02:19:19.365Z,0
2018-08-08T02:20:19.929Z,0
2018-08-08T02:21:20.495Z,0
2018-08-08T02:22:21.078Z,0
2018-08-08T02:23:21.644Z,0
2018-08-08T02:24:22.227Z,0
2018-08-08T02:25:22.787Z,0
2018-08-08T02:26:23.353Z,0
2018-08-08T02:27:23.914Z,0
2018-08-08T02:28:24.477Z,0
2018-08-08T02:29:25.074Z,0
2018-08-08T02:30:25.609Z,0
2018-08-08T02:31:26.173Z,0
2018-08-08T02:32:26.741Z,0
2018-08-08T02:33:27.307Z,0
2018-08-08T02:34:27.899Z,0
2018-08-08T02:35:28.455Z,0
2018-08-08T02:36:29.038Z,0
2018-08-08T02:37:29.604Z,0
2018-08-08T02:38:30.167Z,0
2018-08-08T02:39:30.752Z,0
2018-08-08T02:40:31.342Z,0
2018-08-08T02:41:31.925Z,0
2018-08-08T02:42:32.513Z,0
2018-08-08T02:43:33.116Z,0
2018-08-08T02:44:33.689Z,0
2018-08-08T02:45:34.253Z,0
2018-08-08T02:46:34.817Z,0
2018-08-08T02:47:35.385Z,0
2018-08-08T02:48:35.945Z,0
2018-08-08T02:49:36.511Z,0
2018-08-08T02:50:37.078Z,0
2018-08-08T02:51:37.660Z,0
2018-08-08T02:52:38.225Z,0
2018-08-08T02:53:38.788Z,0
2018-08-08T02:54:39.352Z,0
2018-08-08T02:55:39.914Z,0
2018-08-08T02:56:40.480Z,0
2018-08-08T02:57:41.045Z,0
2018-08-08T02:58:41.612Z,0
2018-08-08T02:59:42.193Z,0
2018-08-08T03:00:42.759Z,0
2018-08-08T03:01:43.319Z,0
2018-08-08T03:02:43.891Z,0
2018-08-08T03:03:44.468Z,0
2018-08-08T03:04:45.032Z,0
2018-08-08T03:05:45.595Z,0
2018-08-08T03:06:46.161Z,0
2018-08-08T03:07:46.744Z,0
2018-08-08T03:08:47.311Z,0
2018-08-08T03:09:47.873Z,0
2018-08-08T03:10:48.457Z,0
2018-08-08T03:11:49.025Z,0
2018-08-08T03:12:49.605Z,0
2018-08-08T03:13:50.169Z,0
2018-08-08T03:14:50.734Z,0
2018-08-08T03:15:51.297Z,0
2018-08-08T03:16:51.860Z,0
2018-08-08T03:17:52.425Z,0
2018-08-08T03:18:52.989Z,0
2018-08-08T03:19:53.553Z,0
2018-08-08T03:20:54.116Z,0
2018-08-08T03:21:54.702Z,0
2018-08-08T03:22:55.265Z,0
2018-08-08T03:23:55.850Z,0
2018-08-08T03:24:56.412Z,0
2018-08-08T03:25:56.976Z,0
2018-08-08T03:26:57.539Z,0
2018-08-08T03:27:58.105Z,0
2018-08-08T03:28:58.667Z,0
2018-08-08T03:29:59.230Z,0
2018-08-08T03:30:59.794Z,0
2018-08-08T03:32:00.360Z,0
2018-08-08T03:33:00.923Z,0
2018-08-08T03:34:01.486Z,0
2018-08-08T03:35:02.049Z,0
2018-08-08T03:36:02.612Z,0
2018-08-08T03:37:03.178Z,0
2018-08-08T03:38:03.745Z,0
2018-08-08T03:39:04.305Z,0
2018-08-08T03:40:04.868Z,0
2018-08-08T03:41:05.434Z,0
2018-08-08T03:42:05.999Z,0
2018-08-08T03:43:06.562Z,0
2018-08-08T03:44:07.129Z,0
2018-08-08T03:45:07.689Z,0
2018-08-08T03:46:08.262Z,0
2018-08-08T03:47:08.819Z,0
2018-08-08T03:48:09.382Z,0
2018-08-08T03:49:09.950Z,0
2018-08-08T03:50:10.513Z,0
2018-08-08T03:51:11.126Z,0
2018-08-08T03:52:11.665Z,0
2018-08-08T03:53:12.269Z,0
2018-08-08T03:54:12.811Z,0
2018-08-08T03:55:13.509Z,0
2018-08-08T03:56:13.940Z,0
2018-08-08T03:57:14.507Z,0
2018-08-08T03:58:15.065Z,0
2018-08-08T03:59:15.628Z,0
2018-08-08T04:00:16.220Z,0
2018-08-08T04:01:16.756Z,0
2018-08-08T04:02:17.320Z,0
2018-08-08T04:03:17.884Z,0
2018-08-08T04:04:18.447Z,0
2018-08-08T04:05:19.013Z,0
2018-08-08T04:06:19.578Z,0
2018-08-08T04:07:20.162Z,0
2018-08-08T04:08:20.726Z,0
2018-08-08T04:09:21.355Z,0
2018-08-08T04:10:21.851Z,0
2018-08-08T04:11:22.412Z,0
2018-08-08T04:12:22.979Z,0
2018-08-08T04:13:23.544Z,0
2018-08-08T04:14:24.126Z,0
2018-08-08T04:15:24.690Z,0
2018-08-08T04:16:25.254Z,0
2018-08-08T04:17:25.817Z,0
2018-08-08T04:18:26.382Z,0
2018-08-08T04:19:26.967Z,0
2018-08-08T04:20:27.532Z,0
2018-08-08T04:21:28.095Z,0
2018-08-08T04:22:28.661Z,0
2018-08-08T04:23:29.226Z,0
2018-08-08T04:24:29.790Z,0
2018-08-08T04:25:30.376Z,0
2018-08-08T04:26:30.943Z,0
2018-08-08T04:27:31.504Z,0
2018-08-08T04:28:32.068Z,0
2018-08-08T04:29:32.631Z,0
2018-08-08T04:30:33.196Z,0
2018-08-08T04:31:33.760Z,0
2018-08-08T04:32:34.326Z,0
2018-08-08T04:33:34.889Z,0
2018-08-08T04:34:35.452Z,0
2018-08-08T04:35:36.019Z,0
2018-08-08T04:36:36.591Z,0
2018-08-08T04:37:37.247Z,0
2018-08-08T04:38:37.715Z,0
2018-08-08T04:39:38.281Z,0
2018-08-08T04:40:38.846Z,0
2018-08-08T04:41:39.413Z,0
2018-08-08T04:42:39.982Z,0
2018-08-08T04:43:40.563Z,0
2018-08-08T04:44:41.112Z,0
2018-08-08T04:45:41.677Z,5
2018-08-08T04:46:42.242Z,5
2018-08-08T04:47:42.807Z,5
2018-08-08T04:48:43.375Z,5
2018-08-08T04:49:43.941Z,5
2018-08-08T04:50:44.550Z,5
2018-08-08T04:51:45.072Z,10
2018-08-08T04:52:45.661Z,10
2018-08-08T04:53:46.247Z,15
2018-08-08T04:54:46.814Z,15
2018-08-08T04:55:47.382Z,20
2018-08-08T04:56:47.948Z,25
2018-08-08T04:57:48.514Z,25
2018-08-08T04:58:49.103Z,30
2018-08-08T04:59:49.692Z,35
2018-08-08T05:00:50.259Z,35
2018-08-08T05:01:50.826Z,40
2018-08-08T05:02:51.395Z,40
2018-08-08T05:03:51.965Z,40
2018-08-08T05:04:52.532Z,40
2018-08-08T05:05:53.102Z,40
2018-08-08T05:06:53.667Z,40
2018-08-08T05:07:54.294Z,35
2018-08-08T05:08:54.824Z,35
2018-08-08T05:09:55.391Z,35
2018-08-08T05:10:55.958Z,35
2018-08-08T05:11:56.527Z,35
2018-08-08T05:12:57.092Z,35
2018-08-08T05:13:57.660Z,35
2018-08-08T05:14:58.235Z,35
2018-08-08T05:15:58.799Z,35
2018-08-08T05:16:59.370Z,35
2018-08-08T05:17:59.936Z,30
2018-08-08T05:19:00.502Z,30
2018-08-08T05:20:01.127Z,30
2018-08-08T05:21:01.637Z,35
2018-08-08T05:22:02.208Z,40
2018-08-08T05:23:02.772Z,50
2018-08-08T05:24:03.342Z,55
2018-08-08T05:25:03.910Z,65
2018-08-08T05:26:04.477Z,70
2018-08-08T05:27:05.045Z,75
2018-08-08T05:28:05.611Z,75
2018-08-08T05:29:06.181Z,75
2018-08-08T05:30:06.746Z,80
2018-08-08T05:31:07.317Z,80
2018-08-08T05:32:07.891Z,80
2018-08-08T05:33:08.456Z,85
2018-08-08T05:34:09.024Z,85
2018-08-08T05:35:09.592Z,85
2018-08-08T05:36:10.199Z,85
2018-08-08T05:37:10.726Z,85
2018-08-08T05:38:11.295Z,90
2018-08-08T05:39:11.863Z,95
2018-08-08T05:40:12.456Z,100
2018-08-08T05:41:13.031Z,100
2018-08-08T05:42:13.598Z,100
2018-08-08T05:43:14.186Z,100
2018-08-08T05:44:14.774Z,100
2018-08-08T05:45:15.344Z,105
2018-08-08T05:46:15.938Z,115
2018-08-08T05:47:16.505Z,125
2018-08-08T05:48:17.078Z,135
2018-08-08T05:49:17.647Z,140
2018-08-08T05:50:18.211Z,150
2018-08-08T05:51:18.783Z,155
2018-08-08T05:52:19.353Z,170
2018-08-08T05:53:19.923Z,175
2018-08-08T05:54:20.494Z,180
2018-08-08T05:55:21.066Z,185
2018-08-08T05:56:21.653Z,185
2018-08-08T05:57:22.224Z,185
2018-08-08T05:58:22.794Z,185
2018-08-08T05:59:23.373Z,190
2018-08-08T06:00:23.943Z,190
2018-08-08T06:01:24.535Z,190
2018-08-08T06:02:25.086Z,190
2018-08-08T06:03:25.654Z,190
2018-08-08T06:04:26.223Z,190
2018-08-08T06:05:26.792Z,195
2018-08-08T06:06:27.363Z,200
2018-08-08T06:07:27.931Z,205
2018-08-08T06:08:28.509Z,210
2018-08-08T06:09:29.093Z,215
2018-08-08T06:10:29.663Z,220
2018-08-08T06:11:30.255Z,225
2018-08-08T06:12:30.825Z,225
2018-08-08T06:13:31.397Z,230
2018-08-08T06:14:32.043Z,235
2018-08-08T06:15:32.552Z,240
2018-08-08T06:16:33.122Z,245
2018-08-08T06:17:33.694Z,250
2018-08-08T06:18:34.262Z,260
2018-08-08T06:19:34.832Z,265
2018-08-08T06:20:35.429Z,275
2018-08-08T06:21:36.002Z,280
2018-08-08T06:22:36.577Z,290
2018-08-08T06:23:37.169Z,295
2018-08-08T06:24:37.763Z,310
2018-08-08T06:25:38.340Z,315
2018-08-08T06:26:38.929Z,325
2018-08-08T06:27:39.503Z,330
2018-08-08T06:28:40.095Z,340
2018-08-08T06:29:40.665Z,350
2018-08-08T06:30:41.269Z,360
2018-08-08T06:31:41.829Z,375
2018-08-08T06:32:42.403Z,380
2018-08-08T06:33:43.006Z,405
2018-08-08T06:34:43.549Z,415
2018-08-08T06:35:44.120Z,425
2018-08-08T06:36:44.691Z,435
2018-08-08T06:37:45.261Z,450
2018-08-08T06:38:45.837Z,465
2018-08-08T06:39:46.404Z,480
2018-08-08T06:40:47.003Z,495
2018-08-08T06:41:47.576Z,515
2018-08-08T06:42:48.151Z,525
2018-08-08T06:43:48.734Z,540
2018-08-08T06:44:49.567Z,560
2018-08-08T06:45:50.193Z,605
2018-08-08T06:46:50.767Z,645
2018-08-08T06:47:51.339Z,660
2018-08-08T06:48:51.912Z,670
2018-08-08T06:49:52.575Z,720
2018-08-08T06:50:53.079Z,795
2018-08-08T06:51:53.652Z,885
2018-08-08T06:52:54.267Z,915
2018-08-08T06:53:54.803Z,910
2018-08-08T06:54:55.400Z,905
2018-08-08T06:55:56.012Z,935
2018-08-08T06:56:56.554Z,940
2018-08-08T06:57:57.132Z,895
2018-08-08T06:58:57.737Z,850
2018-08-08T06:59:58.338Z,825
2018-08-08T07:00:58.897Z,765
2018-08-08T07:01:59.476Z,725
2018-08-08T07:03:00.055Z,770
2018-08-08T07:04:00.757Z,710
2018-08-08T07:05:01.470Z,685
2018-08-08T07:06:01.973Z,640
2018-08-08T07:07:02.701Z,635
2018-08-08T07:08:03.265Z,535
2018-08-08T07:09:03.861Z,530
2018-08-08T07:10:04.421Z,475
2018-08-08T07:11:05.005Z,460
2018-08-08T07:12:05.581Z,440
2018-08-08T07:13:06.178Z,420
2018-08-08T07:14:06.832Z,395
2018-08-08T07:15:07.352Z,365
2018-08-08T07:16:07.930Z,340
2018-08-08T07:17:08.505Z,325
2018-08-08T07:18:09.225Z,315
2018-08-08T07:19:09.759Z,310
2018-08-08T07:20:10.336Z,295
2018-08-08T07:21:10.915Z,290
2018-08-08T07:22:11.485Z,290
2018-08-08T07:23:12.061Z,290
2018-08-08T07:24:12.634Z,290
2018-08-08T07:25:13.258Z,295
2018-08-08T07:26:13.788Z,305
2018-08-08T07:27:14.382Z,300
2018-08-08T07:28:14.955Z,315
2018-08-08T07:29:15.531Z,320
2018-08-08T07:30:16.166Z,330
2018-08-08T07:31:16.726Z,340
2018-08-08T07:32:17.567Z,405
2018-08-08T07:33:18.093Z,605
2018-08-08T07:34:18.669Z,735
2018-08-08T07:35:19.244Z,645
2018-08-08T07:36:19.818Z,585
2018-08-08T07:37:20.393Z,525
2018-08-08T07:38:20.969Z,515
2018-08-08T07:39:21.642Z,580
2018-08-08T07:40:22.280Z,620
2018-08-08T07:41:22.792Z,645
2018-08-08T07:42:23.369Z,685
2018-08-08T07:43:23.947Z,685
2018-08-08T07:44:24.524Z,870
2018-08-08T07:45:25.102Z,930
2018-08-08T07:46:25.799Z,815
2018-08-08T07:47:26.275Z,875
2018-08-08T07:48:26.862Z,975
2018-08-08T07:49:27.460Z,855
2018-08-08T07:50:28.038Z,695
2018-08-08T07:51:28.618Z,670
2018-08-08T07:52:29.215Z,815
2018-08-08T07:53:29.796Z,1070
2018-08-08T07:54:30.374Z,955
2018-08-08T07:55:30.975Z,845
2018-08-08T07:56:31.553Z,1020
2018-08-08T07:57:32.134Z,1025
2018-08-08T07:58:32.743Z,1040
2018-08-08T07:59:33.318Z,1070
2018-08-08T08:00:33.901Z,1055
2018-08-08T08:01:34.476Z,1100
2018-08-08T08:02:35.376Z,885
2018-08-08T08:03:36.099Z,1030
2018-08-08T08:04:36.699Z,855
2018-08-08T08:05:37.278Z,985
2018-08-08T08:06:37.860Z,1290
2018-08-08T08:07:38.463Z,1245
2018-08-08T08:08:39.242Z,1210
2018-08-08T08:09:39.839Z,1270
2018-08-08T08:10:40.623Z,1245
2018-08-08T08:11:41.258Z,1085
2018-08-08T08:12:41.861Z,1150
2018-08-08T08:13:42.413Z,1265
2018-08-08T08:14:42.996Z,1155
2018-08-08T08:15:43.620Z,1255
2018-08-08T08:16:44.210Z,1180
2018-08-08T08:17:45.078Z,1165
2018-08-08T08:18:45.630Z,1085
2018-08-08T08:19:46.212Z,1125
2018-08-08T08:20:46.795Z,1135
2018-08-08T08:21:47.657Z,1125
2018-08-08T08:22:48.311Z,1150
2018-08-08T08:23:48.894Z,1290
2018-08-08T08:24:49.474Z,1215
2018-08-08T08:25:50.064Z,1245
2018-08-08T08:26:50.644Z,1160
2018-08-08T08:27:51.257Z,590
2018-08-08T08:28:51.838Z,1345
2018-08-08T08:29:52.467Z,1435
2018-08-08T08:30:53.003Z,1395
2018-08-08T08:31:53.584Z,1435
2018-08-08T08:32:54.165Z,630
2018-08-08T08:33:54.748Z,1370
2018-08-08T08:34:55.330Z,795
2018-08-08T08:35:55.930Z,1320
2018-08-08T08:36:56.564Z,1600
2018-08-08T08:37:57.093Z,730
2018-08-08T08:38:57.658Z,1515
2018-08-08T08:39:58.245Z,1225
2018-08-08T08:40:58.824Z,1455
2018-08-08T08:41:59.406Z,1260
2018-08-08T08:42:59.989Z,1415
2018-08-08T08:44:00.573Z,1465
2018-08-08T08:45:01.181Z,1550
2018-08-08T08:46:01.763Z,1610
2018-08-08T08:47:02.343Z,695
2018-08-08T08:48:02.925Z,1455
2018-08-08T08:49:03.534Z,1355
2018-08-08T08:50:04.146Z,645
2018-08-08T08:51:04.689Z,1670
2018-08-08T08:52:05.292Z,1680
2018-08-08T08:53:05.876Z,1780
2018-08-08T08:54:06.476Z,1865
2018-08-08T08:55:07.218Z,1880
2018-08-08T08:56:07.781Z,1725
2018-08-08T08:57:08.363Z,1610
2018-08-08T08:58:08.944Z,1695
2018-08-08T08:59:09.525Z,1730
2018-08-08T09:00:10.107Z,1780
2018-08-08T09:01:10.689Z,905
2018-08-08T09:02:11.270Z,1050
2018-08-08T09:03:11.851Z,955
2018-08-08T09:04:12.432Z,1540
2018-08-08T09:05:13.014Z,1255
2018-08-08T09:06:13.598Z,910
2018-08-08T09:07:14.179Z,1010
2018-08-08T09:08:14.800Z,1680
2018-08-08T09:09:15.563Z,610
2018-08-08T09:10:16.148Z,570
2018-08-08T09:11:16.732Z,535
2018-08-08T09:12:17.352Z,515
2018-08-08T09:13:17.888Z,550
2018-08-08T09:14:18.470Z,1570
2018-08-08T09:15:19.051Z,1780
2018-08-08T09:16:19.634Z,1575
2018-08-08T09:17:20.292Z,1855
2018-08-08T09:18:20.866Z,1835
2018-08-08T09:19:21.467Z,1845
2018-08-08T09:20:22.051Z,1840
2018-08-08T09:21:22.634Z,1825
2018-08-08T09:22:23.217Z,1855
2018-08-08T09:23:23.801Z,1840
2018-08-08T09:24:24.386Z,1860
2018-08-08T09:25:25.105Z,1805
2018-08-08T09:26:25.694Z,1870
2018-08-08T09:27:26.302Z,1870
2018-08-08T09:28:26.935Z,955
2018-08-08T09:29:27.478Z,1940
2018-08-08T09:30:28.153Z,1915
2018-08-08T09:31:28.646Z,1950
2018-08-08T09:32:29.237Z,1915
2018-08-08T09:33:29.834Z,1920
2018-08-08T09:34:30.415Z,2000
2018-08-08T09:35:30.997Z,2040
2018-08-08T09:36:31.580Z,2055
2018-08-08T09:37:32.164Z,2150
2018-08-08T09:38:32.746Z,2345
2018-08-08T09:39:33.350Z,2395
2018-08-08T09:40:33.931Z,2455
2018-08-08T09:41:34.514Z,2280
2018-08-08T09:42:35.261Z,1095
2018-08-08T09:43:35.874Z,1025
2018-08-08T09:44:36.456Z,975
2018-08-08T09:45:37.047Z,1545
2018-08-08T09:46:37.643Z,2405
2018-08-08T09:47:38.225Z,1330
2018-08-08T09:48:38.950Z,2105
2018-08-08T09:49:39.496Z,1125
2018-08-08T09:50:40.080Z,795
2018-08-08T09:51:40.660Z,635
2018-08-08T09:52:41.238Z,555
2018-08-08T09:53:41.817Z,710
2018-08-08T09:54:42.413Z,795
2018-08-08T09:55:42.977Z,810
2018-08-08T09:56:43.557Z,825
2018-08-08T09:57:44.312Z,1135
2018-08-08T09:58:44.901Z,1015
2018-08-08T09:59:45.502Z,2305
2018-08-08T10:00:46.085Z,2530
2018-08-08T10:01:46.697Z,2305
2018-08-08T10:02:47.276Z,2150
2018-08-08T10:03:47.869Z,1340
2018-08-08T10:04:48.457Z,1640
2018-08-08T10:05:49.039Z,1820
2018-08-08T10:06:49.625Z,1695
2018-08-08T10:07:50.204Z,1805
2018-08-08T10:08:50.786Z,1850
2018-08-08T10:09:51.373Z,980
2018-08-08T10:10:51.989Z,1160
2018-08-08T10:11:52.537Z,1240
2018-08-08T10:12:53.117Z,1130
2018-08-08T10:13:53.698Z,1065
2018-08-08T10:14:54.283Z,1155
2018-08-08T10:15:54.865Z,1275
2018-08-08T10:16:55.446Z,1200
2018-08-08T10:17:56.029Z,1125
2018-08-08T10:18:56.657Z,1275
2018-08-08T10:19:57.216Z,1990
2018-08-08T10:20:57.797Z,1210
2018-08-08T10:21:58.376Z,1355
2018-08-08T10:22:58.956Z,1975
2018-08-08T10:23:59.539Z,1160
2018-08-08T10:25:00.116Z,2550
2018-08-08T10:26:00.696Z,2430
2018-08-08T10:27:01.344Z,1290
2018-08-08T10:28:01.862Z,2465
2018-08-08T10:29:02.444Z,2460
2018-08-08T10:30:03.212Z,1920
2018-08-08T10:31:03.991Z,2460
2018-08-08T10:32:04.593Z,2285
2018-08-08T10:33:05.186Z,2290
2018-08-08T10:34:05.768Z,2495
2018-08-08T10:35:06.361Z,2520
2018-08-08T10:36:06.980Z,2435
2018-08-08T10:37:07.567Z,2280
2018-08-08T10:38:08.211Z,1375
2018-08-08T10:39:08.868Z,2350
2018-08-08T10:40:09.475Z,2485
2018-08-08T10:41:10.196Z,905
2018-08-08T10:42:10.678Z,890
2018-08-08T10:43:11.334Z,655
2018-08-08T10:44:11.928Z,880
2018-08-08T10:45:12.568Z,2490
2018-08-08T10:46:13.370Z,2335
2018-08-08T10:47:13.980Z,1835
2018-08-08T10:48:14.590Z,2700
2018-08-08T10:49:15.180Z,2685
2018-08-08T10:50:16.019Z,2540
2018-08-08T10:51:16.845Z,1110
2018-08-08T10:52:17.478Z,1005
2018-08-08T10:53:18.154Z,1080
2018-08-08T10:54:18.668Z,2190
2018-08-08T10:55:19.249Z,905
2018-08-08T10:56:20.008Z,895
2018-08-08T10:57:20.702Z,800
2018-08-08T10:58:21.533Z,960
2018-08-08T10:59:22.338Z,2245
2018-08-08T11:00:22.934Z,1195
2018-08-08T11:01:23.516Z,1380
2018-08-08T11:02:24.097Z,1320
2018-08-08T11:03:24.857Z,2540
2018-08-08T11:04:25.441Z,2365
2018-08-08T11:05:26.030Z,1280
2018-08-08T11:06:27.039Z,1575
2018-08-08T11:07:28.341Z,1110
2018-08-08T11:08:29.201Z,1180
2018-08-08T11:09:30.049Z,2210
2018-08-08T11:10:31.218Z,1220
2018-08-08T11:11:32.234Z,1130
2018-08-08T11:12:32.845Z,1155
2018-08-08T11:13:33.425Z,1635
2018-08-08T11:14:34.012Z,1370
2018-08-08T11:15:35.064Z,2795
2018-08-08T11:16:36.314Z,1185
2018-08-08T11:17:37.514Z,1285
2018-08-08T11:18:38.502Z,1065
2018-08-08T11:19:39.600Z,1005
2018-08-08T11:20:40.209Z,1115
2018-08-08T11:21:40.793Z,2875
2018-08-08T11:22:41.454Z,2735
2018-08-08T11:23:42.020Z,1690
2018-08-08T11:24:42.550Z,2790
2018-08-08T11:25:43.152Z,1855
2018-08-08T11:26:43.732Z,2635
2018-08-08T11:27:44.337Z,1875
2018-08-08T11:28:44.914Z,1145
2018-08-08T11:29:45.681Z,1445
2018-08-08T11:30:46.246Z,2855
2018-08-08T11:31:46.829Z,2610
2018-08-08T11:32:47.413Z,2025
2018-08-08T11:33:47.996Z,1350
2018-08-08T11:34:48.578Z,1365
2018-08-08T11:35:49.160Z,840
2018-08-08T11:36:49.752Z,660
2018-08-08T11:37:50.341Z,710
2018-08-08T11:38:51.168Z,900
2018-08-08T11:39:51.692Z,1430
2018-08-08T11:40:52.271Z,2135
2018-08-08T11:41:52.856Z,1175
2018-08-08T11:42:53.433Z,1975
2018-08-08T11:43:54.016Z,950
2018-08-08T11:44:54.628Z,760
2018-08-08T11:45:55.364Z,760
2018-08-08T11:46:55.989Z,685
2018-08-08T11:47:56.518Z,600
2018-08-08T11:48:57.113Z,565
2018-08-08T11:49:57.691Z,515
2018-08-08T11:50:58.269Z,540
2018-08-08T11:51:58.850Z,620
2018-08-08T11:52:59.432Z,680
2018-08-08T11:54:00.004Z,790
2018-08-08T11:55:00.813Z,1065
2018-08-08T11:56:01.454Z,1295
2018-08-08T11:57:02.036Z,2910
2018-08-08T11:58:02.720Z,2945
2018-08-08T11:59:03.229Z,2670
2018-08-08T12:00:03.798Z,1650
2018-08-08T12:01:04.379Z,2925
2018-08-08T12:02:04.984Z,2875
2018-08-08T12:03:05.767Z,2990
2018-08-08T12:04:06.371Z,2840
2018-08-08T12:05:06.958Z,2810
2018-08-08T12:06:07.602Z,1540
2018-08-08T12:07:08.142Z,2265
2018-08-08T12:08:08.723Z,2590
2018-08-08T12:09:09.303Z,1950
2018-08-08T12:10:09.884Z,2330
2018-08-08T12:11:10.466Z,1175
2018-08-08T12:12:11.284Z,1045
2018-08-08T12:13:11.817Z,1285
2018-08-08T12:14:12.603Z,2890
2018-08-08T12:15:13.221Z,2785
2018-08-08T12:16:13.803Z,2305
2018-08-08T12:17:14.405Z,2655
2018-08-08T12:18:14.984Z,995
2018-08-08T12:19:15.665Z,805
2018-08-08T12:20:16.162Z,740
2018-08-08T12:21:16.763Z,690
2018-08-08T12:22:17.545Z,585
2018-08-08T12:23:18.058Z,500
2018-08-08T12:24:18.639Z,440
2018-08-08T12:25:19.220Z,460
2018-08-08T12:26:20.104Z,475
2018-08-08T12:27:20.862Z,475
2018-08-08T12:28:21.425Z,515
2018-08-08T12:29:22.228Z,535
2018-08-08T12:30:22.868Z,555
2018-08-08T12:31:23.460Z,550
2018-08-08T12:32:24.049Z,515
2018-08-08T12:33:24.646Z,510
2018-08-08T12:34:25.333Z,515
2018-08-08T12:35:26.053Z,505
2018-08-08T12:36:26.478Z,470
2018-08-08T12:37:27.059Z,445
2018-08-08T12:38:27.852Z,475
2018-08-08T12:39:28.629Z,560
2018-08-08T12:40:29.191Z,625
2018-08-08T12:41:29.728Z,560
2018-08-08T12:42:30.304Z,455
2018-08-08T12:43:30.881Z,410
2018-08-08T12:44:31.461Z,375
2018-08-08T12:45:32.036Z,365
2018-08-08T12:46:32.612Z,395
2018-08-08T12:47:33.188Z,450
2018-08-08T12:48:33.785Z,480
2018-08-08T12:49:34.342Z,430
2018-08-08T12:50:34.941Z,405
2018-08-08T12:51:35.536Z,415
2018-08-08T12:52:36.320Z,455
2018-08-08T12:53:36.909Z,490
2018-08-08T12:54:37.485Z,565
2018-08-08T12:55:38.477Z,615
2018-08-08T12:56:39.720Z,670
2018-08-08T12:57:40.634Z,685
2018-08-08T12:58:42.152Z,640
2018-08-08T12:59:42.988Z,575
2018-08-08T13:00:43.642Z,560
2018-08-08T13:01:44.192Z,605
2018-08-08T13:02:44.768Z,730
2018-08-08T13:03:45.345Z,850
2018-08-08T13:04:45.941Z,1040
2018-08-08T13:05:46.519Z,2940
2018-08-08T13:06:47.099Z,3100
2018-08-08T13:07:47.676Z,2790
2018-08-08T13:08:48.285Z,1280
2018-08-08T13:09:48.858Z,1935
2018-08-08T13:10:49.438Z,1825
2018-08-08T13:11:50.017Z,2215
2018-08-08T13:12:50.644Z,2665
2018-08-08T13:13:51.243Z,765
2018-08-08T13:14:51.757Z,560
2018-08-08T13:15:52.642Z,575
2018-08-08T13:16:53.327Z,1165
2018-08-08T13:17:53.906Z,870
2018-08-08T13:18:54.486Z,735
2018-08-08T13:19:55.084Z,660
2018-08-08T13:20:55.775Z,810
2018-08-08T13:21:56.525Z,885
2018-08-08T13:22:57.062Z,955
2018-08-08T13:23:57.734Z,1190
2018-08-08T13:24:58.334Z,2705
2018-08-08T13:25:58.828Z,1355
2018-08-08T13:26:59.685Z,945
2018-08-08T13:28:00.650Z,920
2018-08-08T13:29:01.249Z,1270
2018-08-08T13:30:02.053Z,1045
2018-08-08T13:31:02.729Z,820
2018-08-08T13:32:03.247Z,705
2018-08-08T13:33:03.823Z,610
2018-08-08T13:34:04.403Z,540
2018-08-08T13:35:04.978Z,525
2018-08-08T13:36:05.558Z,530
2018-08-08T13:37:06.442Z,605
2018-08-08T13:38:06.979Z,660
2018-08-08T13:39:07.581Z,720
2018-08-08T13:40:08.161Z,875
2018-08-08T13:41:08.754Z,860
2018-08-08T13:42:09.334Z,755
2018-08-08T13:43:09.909Z,675
2018-08-08T13:44:10.508Z,540
2018-08-08T13:45:11.086Z,445
2018-08-08T13:46:11.834Z,395
2018-08-08T13:47:12.426Z,360
2018-08-08T13:48:13.007Z,435
2018-08-08T13:49:13.584Z,555
2018-08-08T13:50:14.543Z,580
2018-08-08T13:51:15.485Z,570
2018-08-08T13:52:16.301Z,605
2018-08-08T13:53:16.883Z,765
2018-08-08T13:54:17.448Z,905
2018-08-08T13:55:18.041Z,885
2018-08-08T13:56:18.678Z,770
2018-08-08T13:57:19.254Z,655
2018-08-08T13:58:19.828Z,545
2018-08-08T13:59:20.474Z,450
2018-08-08T14:00:20.983Z,380
2018-08-08T14:01:21.600Z,335
2018-08-08T14:02:22.159Z,300
2018-08-08T14:03:22.736Z,255
2018-08-08T14:04:23.332Z,205
2018-08-08T14:05:23.906Z,185
2018-08-08T14:06:24.480Z,180
2018-08-08T14:07:25.054Z,185